sensor_id;sensor_type;location;lat;lon;timestamp;temperature;humidity
28171;DHT22;15458;53.346;-1.688;2023-02-03T00:01:43;9.10;99.90
28171;DHT22;15458;53.346;-1.688;2023-02-03T00:04:09;9.00;99.90
28171;DHT22;15458;53.346;-1.688;2023-02-03T00:06:34;9.00;99.90
28171;DHT22;15458;53.346;-1.688;2023-02-03T00:09:00;9.00;99.90
28171;DHT22;15458;53.346;-1.688;2023-02-03T00:11:29;9.00;99.90
28171;DHT22;15458;53.346;-1.688;2023-02-03T00:13:55;9.00;99.90
28171;DHT22;15458;53.346;-1.688;2023-02-03T00:16:21;9.00;99.90
28171;DHT22;15458;53.346;-1.688;2023-02-03T00:18:46;9.00;99.90
28171;DHT22;15458;53.346;-1.688;2023-02-03T00:21:12;9.00;99.90
28171;DHT22;15458;53.346;-1.688;2023-02-03T00:23:40;9.00;99.90
28171;DHT22;15458;53.346;-1.688;2023-02-03T00:26:11;9.00;99.90
28171;DHT22;15458;53.346;-1.688;2023-02-03T00:28:37;9.00;99.90
28171;DHT22;15458;53.346;-1.688;2023-02-03T00:31:03;9.00;99.90
28171;DHT22;15458;53.346;-1.688;2023-02-03T00:33:28;9.00;99.90
28171;DHT22;15458;53.346;-1.688;2023-02-03T00:35:54;9.00;99.90
28171;DHT22;15458;53.346;-1.688;2023-02-03T00:38:20;9.10;99.90
28171;DHT22;15458;53.346;-1.688;2023-02-03T00:40:52;9.00;99.90
28171;DHT22;15458;53.346;-1.688;2023-02-03T00:43:19;9.10;99.90
28171;DHT22;15458;53.346;-1.688;2023-02-03T00:45:45;9.10;99.90
28171;DHT22;15458;53.346;-1.688;2023-02-03T00:48:10;9.10;99.90
28171;DHT22;15458;53.346;-1.688;2023-02-03T00:50:36;9.10;99.90
28171;DHT22;15458;53.346;-1.688;2023-02-03T00:53:01;9.10;99.90
28171;DHT22;15458;53.346;-1.688;2023-02-03T00:55:27;9.10;99.90
28171;DHT22;15458;53.346;-1.688;2023-02-03T00:57:53;9.10;99.90
28171;DHT22;15458;53.346;-1.688;2023-02-03T01:00:19;9.20;99.90
28171;DHT22;15458;53.346;-1.688;2023-02-03T01:02:45;9.20;99.90
28171;DHT22;15458;53.346;-1.688;2023-02-03T01:05:11;9.20;99.90
28171;DHT22;15458;53.346;-1.688;2023-02-03T01:07:36;9.20;99.90
28171;DHT22;15458;53.346;-1.688;2023-02-03T01:10:03;9.20;99.90
28171;DHT22;15458;53.346;-1.688;2023-02-03T01:12:30;9.20;99.90
28171;DHT22;15458;53.346;-1.688;2023-02-03T01:14:56;9.20;99.90
28171;DHT22;15458;53.346;-1.688;2023-02-03T01:17:22;9.20;99.90
28171;DHT22;15458;53.346;-1.688;2023-02-03T01:19:49;9.20;99.90
28171;DHT22;15458;53.346;-1.688;2023-02-03T01:22:15;9.10;99.90
28171;DHT22;15458;53.346;-1.688;2023-02-03T01:24:40;9.10;99.90
28171;DHT22;15458;53.346;-1.688;2023-02-03T01:27:06;9.00;99.90
28171;DHT22;15458;53.346;-1.688;2023-02-03T01:52:15;8.80;99.90
28171;DHT22;15458;53.346;-1.688;2023-02-03T01:54:44;8.80;99.90
28171;DHT22;15458;53.346;-1.688;2023-02-03T01:57:35;8.70;99.90
28171;DHT22;15458;53.346;-1.688;2023-02-03T02:00:05;8.70;99.90
28171;DHT22;15458;53.346;-1.688;2023-02-03T02:02:31;8.70;99.90
28171;DHT22;15458;53.346;-1.688;2023-02-03T02:07:38;8.70;99.90
28171;DHT22;15458;53.346;-1.688;2023-02-03T02:10:05;8.70;99.90
28171;DHT22;15458;53.346;-1.688;2023-02-03T02:12:31;8.70;99.90
28171;DHT22;15458;53.346;-1.688;2023-02-03T02:14:57;8.70;99.90
28171;DHT22;15458;53.346;-1.688;2023-02-03T02:17:57;8.70;99.90
28171;DHT22;15458;53.346;-1.688;2023-02-03T02:23:53;8.70;99.90
28171;DHT22;15458;53.346;-1.688;2023-02-03T02:45:55;8.70;99.90
28171;DHT22;15458;53.346;-1.688;2023-02-03T02:48:25;8.70;99.90
28171;DHT22;15458;53.346;-1.688;2023-02-03T02:50:55;8.70;99.90
28171;DHT22;15458;53.346;-1.688;2023-02-03T02:53:25;8.80;99.90
28171;DHT22;15458;53.346;-1.688;2023-02-03T02:55:53;8.80;99.90
28171;DHT22;15458;53.346;-1.688;2023-02-03T02:58:22;8.80;99.90
28171;DHT22;15458;53.346;-1.688;2023-02-03T03:00:49;8.90;99.90
28171;DHT22;15458;53.346;-1.688;2023-02-03T03:03:20;8.90;99.90
28171;DHT22;15458;53.346;-1.688;2023-02-03T03:06:06;8.90;99.90
28171;DHT22;15458;53.346;-1.688;2023-02-03T03:08:58;8.90;99.90
28171;DHT22;15458;53.346;-1.688;2023-02-03T03:11:27;8.90;99.90
28171;DHT22;15458;53.346;-1.688;2023-02-03T03:13:55;8.90;99.90
28171;DHT22;15458;53.346;-1.688;2023-02-03T03:16:26;8.80;99.90
28171;DHT22;15458;53.346;-1.688;2023-02-03T03:19:11;8.80;99.90
28171;DHT22;15458;53.346;-1.688;2023-02-03T03:21:44;8.80;99.90
28171;DHT22;15458;53.346;-1.688;2023-02-03T03:24:15;8.80;99.90
28171;DHT22;15458;53.346;-1.688;2023-02-03T03:26:55;8.80;99.90
28171;DHT22;15458;53.346;-1.688;2023-02-03T03:29:28;8.80;99.90
28171;DHT22;15458;53.346;-1.688;2023-02-03T03:31:55;8.80;99.90
28171;DHT22;15458;53.346;-1.688;2023-02-03T03:34:21;8.70;99.90
28171;DHT22;15458;53.346;-1.688;2023-02-03T03:36:56;8.70;99.90
28171;DHT22;15458;53.346;-1.688;2023-02-03T03:44:41;8.70;99.90
28171;DHT22;15458;53.346;-1.688;2023-02-03T03:47:13;8.70;99.90
28171;DHT22;15458;53.346;-1.688;2023-02-03T03:49:42;8.60;99.90
28171;DHT22;15458;53.346;-1.688;2023-02-03T03:52:15;8.60;99.90
28171;DHT22;15458;53.346;-1.688;2023-02-03T03:54:44;8.60;99.90
28171;DHT22;15458;53.346;-1.688;2023-02-03T03:57:34;8.60;99.90
28171;DHT22;15458;53.346;-1.688;2023-02-03T04:00:02;8.60;99.90
28171;DHT22;15458;53.346;-1.688;2023-02-03T04:02:30;8.60;99.90
28171;DHT22;15458;53.346;-1.688;2023-02-03T04:04:59;8.60;99.90
28171;DHT22;15458;53.346;-1.688;2023-02-03T04:07:37;8.60;99.90
28171;DHT22;15458;53.346;-1.688;2023-02-03T04:10:06;8.60;99.90
28171;DHT22;15458;53.346;-1.688;2023-02-03T04:12:36;8.60;99.90
28171;DHT22;15458;53.346;-1.688;2023-02-03T04:15:02;8.50;99.90
28171;DHT22;15458;53.346;-1.688;2023-02-03T04:17:28;8.50;99.90
28171;DHT22;15458;53.346;-1.688;2023-02-03T04:19:53;8.50;99.90
28171;DHT22;15458;53.346;-1.688;2023-02-03T04:22:19;8.50;99.90
28171;DHT22;15458;53.346;-1.688;2023-02-03T04:24:44;8.50;99.90
28171;DHT22;15458;53.346;-1.688;2023-02-03T04:27:10;8.50;99.90
28171;DHT22;15458;53.346;-1.688;2023-02-03T04:29:35;8.50;99.90
28171;DHT22;15458;53.346;-1.688;2023-02-03T04:32:01;8.50;99.90
28171;DHT22;15458;53.346;-1.688;2023-02-03T04:34:27;8.50;99.90
28171;DHT22;15458;53.346;-1.688;2023-02-03T04:36:52;8.50;99.90
28171;DHT22;15458;53.346;-1.688;2023-02-03T04:39:18;8.50;99.90
28171;DHT22;15458;53.346;-1.688;2023-02-03T04:41:44;8.50;99.90
28171;DHT22;15458;53.346;-1.688;2023-02-03T04:44:09;8.50;99.90
28171;DHT22;15458;53.346;-1.688;2023-02-03T04:46:35;8.50;99.90
28171;DHT22;15458;53.346;-1.688;2023-02-03T04:49:00;8.50;99.90
28171;DHT22;15458;53.346;-1.688;2023-02-03T04:51:26;8.50;99.90
28171;DHT22;15458;53.346;-1.688;2023-02-03T04:53:52;8.50;99.90
28171;DHT22;15458;53.346;-1.688;2023-02-03T04:56:17;8.50;99.90
28171;DHT22;15458;53.346;-1.688;2023-02-03T04:58:43;8.50;99.90
28171;DHT22;15458;53.346;-1.688;2023-02-03T05:01:09;8.50;99.90
28171;DHT22;15458;53.346;-1.688;2023-02-03T05:03:35;8.50;99.90
28171;DHT22;15458;53.346;-1.688;2023-02-03T05:06:01;8.50;99.90
28171;DHT22;15458;53.346;-1.688;2023-02-03T05:08:28;8.50;99.90
28171;DHT22;15458;53.346;-1.688;2023-02-03T05:10:54;8.50;99.90
28171;DHT22;15458;53.346;-1.688;2023-02-03T05:13:20;8.50;99.90
28171;DHT22;15458;53.346;-1.688;2023-02-03T05:15:45;8.50;99.90
28171;DHT22;15458;53.346;-1.688;2023-02-03T05:18:11;8.50;99.90
28171;DHT22;15458;53.346;-1.688;2023-02-03T05:20:36;8.50;99.90
28171;DHT22;15458;53.346;-1.688;2023-02-03T05:23:02;8.50;99.90
28171;DHT22;15458;53.346;-1.688;2023-02-03T05:25:28;8.50;99.90
28171;DHT22;15458;53.346;-1.688;2023-02-03T05:27:54;8.50;99.90
28171;DHT22;15458;53.346;-1.688;2023-02-03T05:30:20;8.60;99.90
28171;DHT22;15458;53.346;-1.688;2023-02-03T05:32:45;8.60;99.90
28171;DHT22;15458;53.346;-1.688;2023-02-03T05:35:12;8.60;99.90
28171;DHT22;15458;53.346;-1.688;2023-02-03T05:37:38;8.60;99.90
28171;DHT22;15458;53.346;-1.688;2023-02-03T05:40:04;8.60;99.90
28171;DHT22;15458;53.346;-1.688;2023-02-03T05:42:48;8.60;99.90
28171;DHT22;15458;53.346;-1.688;2023-02-03T05:45:15;8.60;99.90
28171;DHT22;15458;53.346;-1.688;2023-02-03T05:47:41;8.60;99.90
28171;DHT22;15458;53.346;-1.688;2023-02-03T05:50:07;8.60;99.90
28171;DHT22;15458;53.346;-1.688;2023-02-03T05:52:33;8.60;99.90
28171;DHT22;15458;53.346;-1.688;2023-02-03T05:54:58;8.60;99.90
28171;DHT22;15458;53.346;-1.688;2023-02-03T05:57:24;8.60;99.90
28171;DHT22;15458;53.346;-1.688;2023-02-03T05:59:49;8.60;99.90
28171;DHT22;15458;53.346;-1.688;2023-02-03T06:02:15;8.70;99.90
28171;DHT22;15458;53.346;-1.688;2023-02-03T06:04:41;8.60;99.90
28171;DHT22;15458;53.346;-1.688;2023-02-03T06:07:06;8.70;99.90
28171;DHT22;15458;53.346;-1.688;2023-02-03T06:09:32;8.70;99.90
28171;DHT22;15458;53.346;-1.688;2023-02-03T06:11:58;8.60;99.90
28171;DHT22;15458;53.346;-1.688;2023-02-03T06:14:23;8.70;99.90
28171;DHT22;15458;53.346;-1.688;2023-02-03T06:16:49;8.70;99.90
28171;DHT22;15458;53.346;-1.688;2023-02-03T06:19:14;8.60;99.90
28171;DHT22;15458;53.346;-1.688;2023-02-03T06:21:40;8.60;99.90
28171;DHT22;15458;53.346;-1.688;2023-02-03T06:24:06;8.60;99.90
28171;DHT22;15458;53.346;-1.688;2023-02-03T06:26:32;8.60;99.90
28171;DHT22;15458;53.346;-1.688;2023-02-03T06:28:57;8.70;99.90
28171;DHT22;15458;53.346;-1.688;2023-02-03T06:31:23;8.70;99.90
28171;DHT22;15458;53.346;-1.688;2023-02-03T06:33:49;8.60;99.90
28171;DHT22;15458;53.346;-1.688;2023-02-03T06:36:14;8.70;99.90
28171;DHT22;15458;53.346;-1.688;2023-02-03T06:38:40;8.70;99.90
28171;DHT22;15458;53.346;-1.688;2023-02-03T06:41:05;8.70;99.90
28171;DHT22;15458;53.346;-1.688;2023-02-03T06:43:31;8.70;99.90
28171;DHT22;15458;53.346;-1.688;2023-02-03T06:45:58;8.70;99.90
28171;DHT22;15458;53.346;-1.688;2023-02-03T06:48:23;8.70;99.90
28171;DHT22;15458;53.346;-1.688;2023-02-03T06:50:49;8.70;99.90
28171;DHT22;15458;53.346;-1.688;2023-02-03T06:53:15;8.70;99.90
28171;DHT22;15458;53.346;-1.688;2023-02-03T06:55:40;8.70;99.90
28171;DHT22;15458;53.346;-1.688;2023-02-03T06:58:06;8.70;99.90
28171;DHT22;15458;53.346;-1.688;2023-02-03T07:00:32;8.70;99.90
28171;DHT22;15458;53.346;-1.688;2023-02-03T07:03:00;8.70;99.90
28171;DHT22;15458;53.346;-1.688;2023-02-03T07:05:27;8.70;99.90
28171;DHT22;15458;53.346;-1.688;2023-02-03T07:07:52;8.70;99.90
28171;DHT22;15458;53.346;-1.688;2023-02-03T07:10:18;8.70;99.90
28171;DHT22;15458;53.346;-1.688;2023-02-03T07:12:44;8.70;99.90
28171;DHT22;15458;53.346;-1.688;2023-02-03T07:15:11;8.70;99.90
28171;DHT22;15458;53.346;-1.688;2023-02-03T07:17:37;8.70;99.90
28171;DHT22;15458;53.346;-1.688;2023-02-03T07:20:03;8.70;99.90
28171;DHT22;15458;53.346;-1.688;2023-02-03T07:22:29;8.70;99.90
28171;DHT22;15458;53.346;-1.688;2023-02-03T07:24:54;8.70;99.90
28171;DHT22;15458;53.346;-1.688;2023-02-03T07:27:20;8.70;99.90
28171;DHT22;15458;53.346;-1.688;2023-02-03T07:29:46;8.70;99.90
28171;DHT22;15458;53.346;-1.688;2023-02-03T07:32:11;8.70;99.90
28171;DHT22;15458;53.346;-1.688;2023-02-03T07:34:38;8.70;99.90
28171;DHT22;15458;53.346;-1.688;2023-02-03T07:37:03;8.70;99.90
28171;DHT22;15458;53.346;-1.688;2023-02-03T07:39:29;8.70;99.90
28171;DHT22;15458;53.346;-1.688;2023-02-03T07:41:55;8.70;99.90
28171;DHT22;15458;53.346;-1.688;2023-02-03T07:44:20;8.70;99.90
28171;DHT22;15458;53.346;-1.688;2023-02-03T07:46:46;8.80;99.90
28171;DHT22;15458;53.346;-1.688;2023-02-03T07:49:12;8.70;99.90
28171;DHT22;15458;53.346;-1.688;2023-02-03T07:51:38;8.70;99.90
28171;DHT22;15458;53.346;-1.688;2023-02-03T07:54:04;8.70;99.90
28171;DHT22;15458;53.346;-1.688;2023-02-03T07:56:29;8.80;99.90
28171;DHT22;15458;53.346;-1.688;2023-02-03T07:58:58;8.70;99.90
28171;DHT22;15458;53.346;-1.688;2023-02-03T08:01:24;8.70;99.90
28171;DHT22;15458;53.346;-1.688;2023-02-03T08:03:50;8.70;99.90
28171;DHT22;15458;53.346;-1.688;2023-02-03T08:06:15;8.70;99.90
28171;DHT22;15458;53.346;-1.688;2023-02-03T08:08:41;8.70;99.90
28171;DHT22;15458;53.346;-1.688;2023-02-03T08:11:08;8.70;99.90
28171;DHT22;15458;53.346;-1.688;2023-02-03T08:13:34;8.70;99.90
28171;DHT22;15458;53.346;-1.688;2023-02-03T08:15:59;8.70;99.90
28171;DHT22;15458;53.346;-1.688;2023-02-03T08:18:25;8.70;99.90
28171;DHT22;15458;53.346;-1.688;2023-02-03T08:20:51;8.70;99.90
28171;DHT22;15458;53.346;-1.688;2023-02-03T08:23:16;8.70;99.90
28171;DHT22;15458;53.346;-1.688;2023-02-03T08:25:42;8.70;99.90
28171;DHT22;15458;53.346;-1.688;2023-02-03T08:28:08;8.80;99.90
28171;DHT22;15458;53.346;-1.688;2023-02-03T08:30:34;8.70;99.90
28171;DHT22;15458;53.346;-1.688;2023-02-03T08:33:00;8.80;99.90
28171;DHT22;15458;53.346;-1.688;2023-02-03T08:35:26;8.80;99.90
28171;DHT22;15458;53.346;-1.688;2023-02-03T08:37:52;8.80;99.90
28171;DHT22;15458;53.346;-1.688;2023-02-03T08:40:20;8.80;99.90
28171;DHT22;15458;53.346;-1.688;2023-02-03T08:42:46;8.80;99.90
28171;DHT22;15458;53.346;-1.688;2023-02-03T08:45:11;8.80;99.90
28171;DHT22;15458;53.346;-1.688;2023-02-03T08:47:37;8.80;99.90
28171;DHT22;15458;53.346;-1.688;2023-02-03T08:50:05;8.80;99.90
28171;DHT22;15458;53.346;-1.688;2023-02-03T08:52:31;8.80;99.90
28171;DHT22;15458;53.346;-1.688;2023-02-03T08:54:57;8.80;99.90
28171;DHT22;15458;53.346;-1.688;2023-02-03T08:57:23;8.80;99.90
28171;DHT22;15458;53.346;-1.688;2023-02-03T08:59:48;8.80;99.90
28171;DHT22;15458;53.346;-1.688;2023-02-03T09:02:17;8.80;99.90
28171;DHT22;15458;53.346;-1.688;2023-02-03T09:04:44;8.90;99.90
28171;DHT22;15458;53.346;-1.688;2023-02-03T09:07:10;8.90;99.90
28171;DHT22;15458;53.346;-1.688;2023-02-03T09:09:36;8.90;99.90
28171;DHT22;15458;53.346;-1.688;2023-02-03T09:12:02;8.90;99.90
28171;DHT22;15458;53.346;-1.688;2023-02-03T09:14:30;8.90;99.90
28171;DHT22;15458;53.346;-1.688;2023-02-03T09:16:58;8.90;99.90
28171;DHT22;15458;53.346;-1.688;2023-02-03T09:19:24;8.90;99.90
28171;DHT22;15458;53.346;-1.688;2023-02-03T09:21:49;8.90;99.90
28171;DHT22;15458;53.346;-1.688;2023-02-03T09:24:16;9.00;99.90
28171;DHT22;15458;53.346;-1.688;2023-02-03T09:26:42;8.90;99.90
28171;DHT22;15458;53.346;-1.688;2023-02-03T09:29:08;8.90;99.90
28171;DHT22;15458;53.346;-1.688;2023-02-03T09:31:33;9.00;99.90
28171;DHT22;15458;53.346;-1.688;2023-02-03T09:36:52;9.00;99.90
28171;DHT22;15458;53.346;-1.688;2023-02-03T09:39:18;9.00;99.90
28171;DHT22;15458;53.346;-1.688;2023-02-03T09:47:28;9.10;99.90
28171;DHT22;15458;53.346;-1.688;2023-02-03T09:50:03;9.10;99.90
28171;DHT22;15458;53.346;-1.688;2023-02-03T09:52:35;9.10;99.90
28171;DHT22;15458;53.346;-1.688;2023-02-03T09:58:02;9.10;99.90
28171;DHT22;15458;53.346;-1.688;2023-02-03T10:00:38;9.10;99.90
28171;DHT22;15458;53.346;-1.688;2023-02-03T10:06:27;9.10;99.90
28171;DHT22;15458;53.346;-1.688;2023-02-03T10:17:47;9.10;99.90
28171;DHT22;15458;53.346;-1.688;2023-02-03T10:20:18;9.10;99.90
28171;DHT22;15458;53.346;-1.688;2023-02-03T10:22:52;9.20;99.90
28171;DHT22;15458;53.346;-1.688;2023-02-03T10:25:23;9.20;99.90
28171;DHT22;15458;53.346;-1.688;2023-02-03T10:27:55;9.20;99.90
28171;DHT22;15458;53.346;-1.688;2023-02-03T10:30:24;9.20;99.90
28171;DHT22;15458;53.346;-1.688;2023-02-03T10:32:58;9.20;99.90
28171;DHT22;15458;53.346;-1.688;2023-02-03T10:35:37;9.30;99.90
28171;DHT22;15458;53.346;-1.688;2023-02-03T10:38:04;9.30;99.90
28171;DHT22;15458;53.346;-1.688;2023-02-03T10:40:34;9.30;99.90
28171;DHT22;15458;53.346;-1.688;2023-02-03T10:43:00;9.40;99.90
28171;DHT22;15458;53.346;-1.688;2023-02-03T10:45:44;9.40;99.90
28171;DHT22;15458;53.346;-1.688;2023-02-03T10:48:15;9.40;99.90
28171;DHT22;15458;53.346;-1.688;2023-02-03T10:50:46;9.50;99.90
28171;DHT22;15458;53.346;-1.688;2023-02-03T10:55:46;9.60;99.90
28171;DHT22;15458;53.346;-1.688;2023-02-03T10:58:27;9.60;99.90
28171;DHT22;15458;53.346;-1.688;2023-02-03T11:01:04;9.60;99.90
28171;DHT22;15458;53.346;-1.688;2023-02-03T11:03:30;9.70;99.90
28171;DHT22;15458;53.346;-1.688;2023-02-03T11:06:07;9.70;99.90
28171;DHT22;15458;53.346;-1.688;2023-02-03T11:08:35;9.60;99.90
28171;DHT22;15458;53.346;-1.688;2023-02-03T11:11:13;9.70;99.90
28171;DHT22;15458;53.346;-1.688;2023-02-03T11:13:39;9.70;99.90
28171;DHT22;15458;53.346;-1.688;2023-02-03T11:16:18;9.80;99.90
28171;DHT22;15458;53.346;-1.688;2023-02-03T11:21:40;9.90;99.90
28171;DHT22;15458;53.346;-1.688;2023-02-03T11:24:19;9.90;99.90
28171;DHT22;15458;53.346;-1.688;2023-02-03T11:26:56;10.00;99.90
28171;DHT22;15458;53.346;-1.688;2023-02-03T11:29:28;10.10;99.90
28171;DHT22;15458;53.346;-1.688;2023-02-03T11:31:59;10.00;99.90
28171;DHT22;15458;53.346;-1.688;2023-02-03T11:34:34;10.10;99.90
28171;DHT22;15458;53.346;-1.688;2023-02-03T11:42:41;10.30;99.90
28171;DHT22;15458;53.346;-1.688;2023-02-03T11:47:46;10.40;99.90
28171;DHT22;15458;53.346;-1.688;2023-02-03T11:50:21;10.50;99.90
28171;DHT22;15458;53.346;-1.688;2023-02-03T11:58:51;10.60;99.90
28171;DHT22;15458;53.346;-1.688;2023-02-03T12:12:47;10.50;99.90
28171;DHT22;15458;53.346;-1.688;2023-02-03T12:20:59;10.40;99.90
28171;DHT22;15458;53.346;-1.688;2023-02-03T12:23:36;10.40;99.90
28171;DHT22;15458;53.346;-1.688;2023-02-03T12:26:41;10.30;99.90
28171;DHT22;15458;53.346;-1.688;2023-02-03T12:29:20;10.30;99.90
28171;DHT22;15458;53.346;-1.688;2023-02-03T12:32:37;10.30;99.90
28171;DHT22;15458;53.346;-1.688;2023-02-03T12:34:40;10.20;99.90
28171;DHT22;15458;53.346;-1.688;2023-02-03T12:37:11;10.20;99.90
28171;DHT22;15458;53.346;-1.688;2023-02-03T12:42:35;10.20;99.90
28171;DHT22;15458;53.346;-1.688;2023-02-03T12:45:11;10.10;99.90
28171;DHT22;15458;53.346;-1.688;2023-02-03T12:48:05;10.10;99.90
28171;DHT22;15458;53.346;-1.688;2023-02-03T12:50:45;10.10;99.90
28171;DHT22;15458;53.346;-1.688;2023-02-03T12:53:24;10.10;99.90
28171;DHT22;15458;53.346;-1.688;2023-02-03T12:56:11;10.00;99.90
28171;DHT22;15458;53.346;-1.688;2023-02-03T12:59:04;10.00;99.90
28171;DHT22;15458;53.346;-1.688;2023-02-03T13:01:35;10.00;99.90
28171;DHT22;15458;53.346;-1.688;2023-02-03T13:06:54;10.00;99.90
28171;DHT22;15458;53.346;-1.688;2023-02-03T13:09:30;10.10;99.90
28171;DHT22;15458;53.346;-1.688;2023-02-03T13:14:52;10.10;99.90
28171;DHT22;15458;53.346;-1.688;2023-02-03T13:19:52;10.10;99.90
28171;DHT22;15458;53.346;-1.688;2023-02-03T13:22:20;10.00;99.90
28171;DHT22;15458;53.346;-1.688;2023-02-03T13:25:13;10.00;99.90
28171;DHT22;15458;53.346;-1.688;2023-02-03T13:39:35;10.00;99.90
28171;DHT22;15458;53.346;-1.688;2023-02-03T13:44:43;10.00;99.90
28171;DHT22;15458;53.346;-1.688;2023-02-03T13:47:26;10.00;99.90
28171;DHT22;15458;53.346;-1.688;2023-02-03T13:49:55;9.90;99.90
28171;DHT22;15458;53.346;-1.688;2023-02-03T13:52:44;10.00;99.90
28171;DHT22;15458;53.346;-1.688;2023-02-03T13:55:37;10.00;99.90
28171;DHT22;15458;53.346;-1.688;2023-02-03T13:58:05;10.00;99.90
28171;DHT22;15458;53.346;-1.688;2023-02-03T14:03:39;10.00;99.90
28171;DHT22;15458;53.346;-1.688;2023-02-03T14:06:53;10.00;99.90
28171;DHT22;15458;53.346;-1.688;2023-02-03T14:08:58;9.90;99.90
28171;DHT22;15458;53.346;-1.688;2023-02-03T14:21:50;9.90;99.90
28171;DHT22;15458;53.346;-1.688;2023-02-03T14:24:17;9.90;99.90
28171;DHT22;15458;53.346;-1.688;2023-02-03T14:26:47;9.90;99.90
28171;DHT22;15458;53.346;-1.688;2023-02-03T14:29:24;9.90;99.90
28171;DHT22;15458;53.346;-1.688;2023-02-03T14:34:17;9.90;99.90
28171;DHT22;15458;53.346;-1.688;2023-02-03T14:42:08;9.90;99.90
28171;DHT22;15458;53.346;-1.688;2023-02-03T14:47:44;9.80;99.90
28171;DHT22;15458;53.346;-1.688;2023-02-03T14:50:27;9.90;99.90
28171;DHT22;15458;53.346;-1.688;2023-02-03T14:58:29;9.80;99.90
28171;DHT22;15458;53.346;-1.688;2023-02-03T15:00:56;9.80;99.90
28171;DHT22;15458;53.346;-1.688;2023-02-03T15:03:23;9.80;99.90
28171;DHT22;15458;53.346;-1.688;2023-02-03T15:06:35;9.80;99.90
28171;DHT22;15458;53.346;-1.688;2023-02-03T15:08:59;9.80;99.90
28171;DHT22;15458;53.346;-1.688;2023-02-03T15:11:31;9.80;99.90
28171;DHT22;15458;53.346;-1.688;2023-02-03T15:14:20;9.80;99.90
28171;DHT22;15458;53.346;-1.688;2023-02-03T15:16:52;9.80;99.90
28171;DHT22;15458;53.346;-1.688;2023-02-03T15:19:21;9.70;99.90
28171;DHT22;15458;53.346;-1.688;2023-02-03T15:21:47;9.70;99.90
28171;DHT22;15458;53.346;-1.688;2023-02-03T15:24:15;9.70;99.90
28171;DHT22;15458;53.346;-1.688;2023-02-03T15:26:51;9.70;99.90
28171;DHT22;15458;53.346;-1.688;2023-02-03T15:29:28;9.70;99.90
28171;DHT22;15458;53.346;-1.688;2023-02-03T15:32:08;9.70;99.90
28171;DHT22;15458;53.346;-1.688;2023-02-03T15:34:36;9.70;99.90
28171;DHT22;15458;53.346;-1.688;2023-02-03T15:37:16;9.70;99.90
28171;DHT22;15458;53.346;-1.688;2023-02-03T15:42:45;9.60;99.90
28171;DHT22;15458;53.346;-1.688;2023-02-03T15:45:32;9.60;99.90
28171;DHT22;15458;53.346;-1.688;2023-02-03T15:50:57;9.50;99.90
28171;DHT22;15458;53.346;-1.688;2023-02-03T15:53:30;9.50;99.90
28171;DHT22;15458;53.346;-1.688;2023-02-03T15:56:00;9.50;99.90
28171;DHT22;15458;53.346;-1.688;2023-02-03T15:58:31;9.50;99.90
28171;DHT22;15458;53.346;-1.688;2023-02-03T16:01:06;9.40;99.90
28171;DHT22;15458;53.346;-1.688;2023-02-03T16:03:41;9.40;99.90
28171;DHT22;15458;53.346;-1.688;2023-02-03T16:06:17;9.40;99.90
28171;DHT22;15458;53.346;-1.688;2023-02-03T16:08:47;9.40;99.90
28171;DHT22;15458;53.346;-1.688;2023-02-03T16:11:34;9.30;99.90
28171;DHT22;15458;53.346;-1.688;2023-02-03T16:14:05;9.30;99.90
28171;DHT22;15458;53.346;-1.688;2023-02-03T16:16:41;9.30;99.90
28171;DHT22;15458;53.346;-1.688;2023-02-03T16:19:20;9.30;99.90
28171;DHT22;15458;53.346;-1.688;2023-02-03T16:21:54;9.30;99.90
28171;DHT22;15458;53.346;-1.688;2023-02-03T16:24:39;9.30;99.90
28171;DHT22;15458;53.346;-1.688;2023-02-03T16:33:04;9.30;99.90
28171;DHT22;15458;53.346;-1.688;2023-02-03T16:35:53;9.30;99.90
28171;DHT22;15458;53.346;-1.688;2023-02-03T16:38:47;9.30;99.90
28171;DHT22;15458;53.346;-1.688;2023-02-03T16:41:32;9.30;99.90
28171;DHT22;15458;53.346;-1.688;2023-02-03T16:44:20;9.30;99.90
28171;DHT22;15458;53.346;-1.688;2023-02-03T16:50:04;9.30;99.90
28171;DHT22;15458;53.346;-1.688;2023-02-03T16:52:49;9.30;99.90
28171;DHT22;15458;53.346;-1.688;2023-02-03T16:55:15;9.20;99.90
28171;DHT22;15458;53.346;-1.688;2023-02-03T16:57:40;9.20;99.90
28171;DHT22;15458;53.346;-1.688;2023-02-03T17:00:07;9.20;99.90
28171;DHT22;15458;53.346;-1.688;2023-02-03T17:02:36;9.20;99.90
28171;DHT22;15458;53.346;-1.688;2023-02-03T17:05:01;9.20;99.90
28171;DHT22;15458;53.346;-1.688;2023-02-03T17:07:27;9.20;99.90
28171;DHT22;15458;53.346;-1.688;2023-02-03T17:09:53;9.20;99.90
28171;DHT22;15458;53.346;-1.688;2023-02-03T17:12:18;9.20;99.90
28171;DHT22;15458;53.346;-1.688;2023-02-03T17:14:44;9.30;99.90
28171;DHT22;15458;53.346;-1.688;2023-02-03T17:17:10;9.30;99.90
28171;DHT22;15458;53.346;-1.688;2023-02-03T17:19:35;9.30;99.90
28171;DHT22;15458;53.346;-1.688;2023-02-03T17:22:01;9.30;99.90
28171;DHT22;15458;53.346;-1.688;2023-02-03T17:24:26;9.30;99.90
28171;DHT22;15458;53.346;-1.688;2023-02-03T17:26:52;9.30;99.90
28171;DHT22;15458;53.346;-1.688;2023-02-03T17:29:19;9.30;99.90
28171;DHT22;15458;53.346;-1.688;2023-02-03T17:31:44;9.30;99.90
28171;DHT22;15458;53.346;-1.688;2023-02-03T17:34:10;9.30;99.90
28171;DHT22;15458;53.346;-1.688;2023-02-03T17:36:36;9.20;99.90
28171;DHT22;15458;53.346;-1.688;2023-02-03T17:39:01;9.20;99.90
28171;DHT22;15458;53.346;-1.688;2023-02-03T17:41:27;9.20;99.90
28171;DHT22;15458;53.346;-1.688;2023-02-03T17:43:52;9.20;99.90
28171;DHT22;15458;53.346;-1.688;2023-02-03T17:46:23;9.20;99.90
28171;DHT22;15458;53.346;-1.688;2023-02-03T17:48:49;9.20;99.90
28171;DHT22;15458;53.346;-1.688;2023-02-03T17:51:18;9.30;99.90
28171;DHT22;15458;53.346;-1.688;2023-02-03T17:53:44;9.20;99.90
28171;DHT22;15458;53.346;-1.688;2023-02-03T17:56:13;9.20;99.90
28171;DHT22;15458;53.346;-1.688;2023-02-03T17:58:40;9.20;99.90
28171;DHT22;15458;53.346;-1.688;2023-02-03T18:01:10;9.20;99.90
28171;DHT22;15458;53.346;-1.688;2023-02-03T18:04:01;9.20;99.90
28171;DHT22;15458;53.346;-1.688;2023-02-03T18:06:29;9.10;99.90
28171;DHT22;15458;53.346;-1.688;2023-02-03T18:08:55;9.10;99.90
28171;DHT22;15458;53.346;-1.688;2023-02-03T18:11:25;9.00;99.90
28171;DHT22;15458;53.346;-1.688;2023-02-03T18:13:51;9.00;99.90
28171;DHT22;15458;53.346;-1.688;2023-02-03T18:16:20;9.00;99.90
28171;DHT22;15458;53.346;-1.688;2023-02-03T18:18:47;9.00;99.90
28171;DHT22;15458;53.346;-1.688;2023-02-03T18:21:15;8.90;99.90
28171;DHT22;15458;53.346;-1.688;2023-02-03T18:23:41;8.90;99.90
28171;DHT22;15458;53.346;-1.688;2023-02-03T18:26:09;8.90;99.90
28171;DHT22;15458;53.346;-1.688;2023-02-03T18:28:35;8.90;99.90
28171;DHT22;15458;53.346;-1.688;2023-02-03T18:33:30;8.90;99.90
28171;DHT22;15458;53.346;-1.688;2023-02-03T18:35:56;8.90;99.90
28171;DHT22;15458;53.346;-1.688;2023-02-03T18:38:26;8.90;99.90
28171;DHT22;15458;53.346;-1.688;2023-02-03T18:40:52;8.90;99.90
28171;DHT22;15458;53.346;-1.688;2023-02-03T18:43:20;8.80;99.90
28171;DHT22;15458;53.346;-1.688;2023-02-03T18:45:45;8.80;99.90
28171;DHT22;15458;53.346;-1.688;2023-02-03T18:48:11;8.80;99.90
28171;DHT22;15458;53.346;-1.688;2023-02-03T18:50:40;8.80;99.90
28171;DHT22;15458;53.346;-1.688;2023-02-03T18:53:06;8.80;99.90